Tenbury Wells, United Kingdom
Current Conditions -  °F | °C
As of 4:50 AM on Saturday 29 Nov 2014 (Local Time) from EGOS Reporting Station
Haze Haze  
Wind Chill: 50°   Ceiling: 500
Heat Index: 50°   Visibility: 3mi
Dew Point: 48°   Wind: 7mph
Humidity: 94%   Direction: 80°E
Pressure: 29.77"   Gusts: NA
Location:  52.31°N, 2.59°W
Report Text: EGOS 290450Z AUTO 08006KT 4900 BR OVC005/// 10/09 Q1008 RERA
Loading
Personal Weather Stations






























Interactive Weather Map New forecast layout! Learn more

10-Day Weather Forecast

Advertisements
Track Severe Weather on mobile